createdAt,value
2023-02-09T00:00:51.710Z,11.93
2023-02-09T00:02:53.497Z,13.07
2023-02-09T00:04:55.195Z,13.60
2023-02-09T00:06:56.997Z,13.40
2023-02-09T00:08:59.599Z,17.63
2023-02-09T00:11:05.002Z,15.00
2023-02-09T00:13:24.735Z,13.50
2023-02-09T00:15:26.410Z,14.73
2023-02-09T00:17:28.098Z,13.00
2023-02-09T00:19:31.741Z,15.17
2023-02-09T00:21:34.816Z,12.60
2023-02-09T00:23:39.608Z,12.60
2023-02-09T00:25:41.257Z,12.30
2023-02-09T00:27:42.982Z,11.70
2023-02-09T00:29:44.861Z,13.47
2023-02-09T00:31:46.637Z,12.13
2023-02-09T00:33:48.551Z,17.83
2023-02-09T00:35:50.178Z,11.33
2023-02-09T00:37:51.815Z,12.17
2023-02-09T00:39:53.460Z,14.50
2023-02-09T00:42:07.274Z,14.90
2023-02-09T00:44:10.040Z,13.47
2023-02-09T00:46:11.665Z,15.37
2023-02-09T00:48:13.320Z,20.67
2023-02-09T00:50:15.066Z,14.20
2023-02-09T00:52:16.761Z,13.10
2023-02-09T00:54:18.419Z,15.57
2023-02-09T00:56:20.078Z,14.60
2023-02-09T00:58:21.765Z,11.57
2023-02-09T01:00:23.555Z,12.87
2023-02-09T01:02:25.347Z,13.33
2023-02-09T01:04:27.427Z,11.97
2023-02-09T01:06:29.286Z,13.43
2023-02-09T01:08:30.943Z,11.73
2023-02-09T01:10:33.886Z,12.87
2023-02-09T01:12:35.546Z,15.43
2023-02-09T01:14:38.637Z,12.40
2023-02-09T01:16:40.365Z,11.00
2023-02-09T01:18:43.233Z,19.83
2023-02-09T01:20:45.160Z,11.23
2023-02-09T01:22:47.005Z,12.80
2023-02-09T01:24:48.800Z,17.07
2023-02-09T01:26:50.451Z,21.67
2023-02-09T01:28:53.436Z,16.17
2023-02-09T01:30:55.229Z,14.93
2023-02-09T01:32:56.947Z,18.93
2023-02-09T01:34:58.590Z,13.57
2023-02-09T01:37:00.178Z,14.13
2023-02-09T01:39:02.713Z,15.43
2023-02-09T01:41:04.381Z,14.00
2023-02-09T01:43:06.020Z,20.13
2023-02-09T01:45:07.941Z,17.60
2023-02-09T01:47:19.605Z,12.80
2023-02-09T01:49:27.134Z,13.73
2023-02-09T01:51:29.519Z,11.90
2023-02-09T01:53:32.467Z,12.03
2023-02-09T01:55:37.525Z,14.87
2023-02-09T01:57:46.619Z,13.03
2023-02-09T01:59:52.222Z,14.53
2023-02-09T02:01:53.905Z,13.20
2023-02-09T02:03:55.686Z,13.87
2023-02-09T02:06:02.689Z,12.83
2023-02-09T02:08:20.905Z,13.73
2023-02-09T02:10:22.651Z,13.53
2023-02-09T02:12:24.822Z,12.73
2023-02-09T02:14:38.030Z,12.40
2023-02-09T02:16:58.018Z,15.93
2023-02-09T02:19:29.939Z,11.83
2023-02-09T02:22:01.103Z,13.47
2023-02-09T02:24:50.844Z,12.37
2023-02-09T02:26:58.670Z,12.40
2023-02-09T02:29:37.989Z,15.90
2023-02-09T02:31:58.174Z,12.67
2023-02-09T02:34:18.228Z,15.40
2023-02-09T02:36:34.788Z,13.07
2023-02-09T02:38:49.538Z,14.97
2023-02-09T02:41:19.243Z,11.97
2023-02-09T02:43:57.998Z,15.27
2023-02-09T02:46:04.380Z,13.60
2023-02-09T02:48:24.920Z,10.87
2023-02-09T02:50:27.966Z,11.60
2023-02-09T02:52:29.656Z,13.57
2023-02-09T02:54:42.015Z,15.27
2023-02-09T02:56:46.805Z,12.97
2023-02-09T02:58:50.298Z,12.73
2023-02-09T03:00:54.761Z,12.57
2023-02-09T03:03:00.337Z,13.17
2023-02-09T03:05:03.432Z,12.80
2023-02-09T03:07:08.529Z,13.73
2023-02-09T03:09:10.212Z,15.33
2023-02-09T03:11:12.091Z,13.50
2023-02-09T03:13:16.588Z,14.53
2023-02-09T03:15:39.532Z,16.67
2023-02-09T03:17:53.030Z,13.50
2023-02-09T03:20:04.098Z,11.50
2023-02-09T03:22:06.776Z,12.57
2023-02-09T03:24:42.528Z,16.33
2023-02-09T03:26:53.804Z,13.63
2023-02-09T03:28:57.318Z,13.60
2023-02-09T03:30:59.266Z,12.47
2023-02-09T03:33:03.008Z,12.60
2023-02-09T03:35:05.711Z,12.83
2023-02-09T03:37:07.423Z,13.67
2023-02-09T03:39:09.145Z,15.70
2023-02-09T03:41:10.915Z,11.90
2023-02-09T03:43:12.911Z,12.53
2023-02-09T03:45:14.640Z,11.87
2023-02-09T03:47:16.324Z,12.00
2023-02-09T03:49:17.929Z,13.13
2023-02-09T03:51:19.578Z,12.83
2023-02-09T03:53:21.281Z,10.87
2023-02-09T03:55:22.877Z,11.93
2023-02-09T03:57:24.700Z,11.50
2023-02-09T03:59:26.965Z,13.17
2023-02-09T04:01:28.586Z,12.37
2023-02-09T04:03:30.729Z,14.33
2023-02-09T04:05:32.410Z,12.17
2023-02-09T04:07:34.061Z,12.70
2023-02-09T04:09:37.557Z,12.07
2023-02-09T04:11:39.284Z,12.47
2023-02-09T04:13:40.990Z,15.53
2023-02-09T04:15:42.656Z,12.23
2023-02-09T04:17:44.310Z,12.63
2023-02-09T04:19:45.957Z,16.37
2023-02-09T04:21:47.600Z,12.23
2023-02-09T04:23:49.280Z,11.47
2023-02-09T04:25:50.933Z,11.87
2023-02-09T04:27:52.659Z,11.63
2023-02-09T04:29:54.304Z,12.67
2023-02-09T04:31:56.147Z,13.10
2023-02-09T04:33:57.988Z,15.50
2023-02-09T04:35:59.863Z,13.17
2023-02-09T04:38:01.494Z,13.33
2023-02-09T04:40:03.334Z,11.43
2023-02-09T04:42:05.048Z,12.23
2023-02-09T04:44:06.750Z,14.10
2023-02-09T04:46:16.236Z,13.53
2023-02-09T04:48:20.340Z,16.00
2023-02-09T04:50:21.909Z,10.87
2023-02-09T04:52:23.569Z,13.93
2023-02-09T04:54:25.313Z,10.47
2023-02-09T04:56:27.015Z,11.43
2023-02-09T04:58:50.241Z,11.83
2023-02-09T05:00:51.936Z,13.23
2023-02-09T05:02:54.685Z,11.27
2023-02-09T05:04:56.563Z,13.73
2023-02-09T05:06:58.186Z,13.77
2023-02-09T05:08:59.827Z,15.37
2023-02-09T05:11:01.598Z,24.53
2023-02-09T05:13:03.324Z,20.60
2023-02-09T05:15:05.276Z,28.53
2023-02-09T05:17:07.009Z,14.27
2023-02-09T05:19:08.656Z,24.07
2023-02-09T05:21:10.344Z,13.50
2023-02-09T05:23:12.700Z,14.67
2023-02-09T05:25:14.278Z,13.30
2023-02-09T05:27:18.591Z,12.87
2023-02-09T05:29:22.149Z,13.50
2023-02-09T05:31:24.021Z,14.60
2023-02-09T05:33:26.452Z,16.47
2023-02-09T05:35:28.078Z,16.93
2023-02-09T05:37:29.705Z,12.70
2023-02-09T05:39:31.307Z,13.77
2023-02-09T05:41:51.422Z,11.90
2023-02-09T05:43:53.050Z,12.87
2023-02-09T05:45:54.703Z,13.87
2023-02-09T05:47:56.466Z,13.80
2023-02-09T05:49:58.110Z,15.17
2023-02-09T05:51:59.913Z,30.43
2023-02-09T05:54:01.579Z,16.43
2023-02-09T05:56:03.219Z,18.60
2023-02-09T05:58:04.897Z,15.90
2023-02-09T06:00:07.168Z,13.40
2023-02-09T06:02:09.337Z,15.97
2023-02-09T06:04:11.007Z,26.50
2023-02-09T06:06:12.666Z,15.43
2023-02-09T06:08:14.480Z,13.93
2023-02-09T06:10:17.242Z,16.97
2023-02-09T06:12:18.870Z,14.90
2023-02-09T06:14:20.714Z,16.43
2023-02-09T06:16:25.915Z,14.03
2023-02-09T06:18:27.672Z,16.63
2023-02-09T06:20:29.361Z,12.87
2023-02-09T06:22:31.898Z,13.70
2023-02-09T06:24:36.356Z,11.93
2023-02-09T06:26:38.198Z,13.40
2023-02-09T06:28:40.079Z,13.90
2023-02-09T06:30:41.863Z,12.23
2023-02-09T06:32:43.716Z,14.77
2023-02-09T06:34:45.460Z,16.37
2023-02-09T06:36:47.311Z,13.20
2023-02-09T06:38:48.974Z,15.83
2023-02-09T06:40:50.657Z,18.03
2023-02-09T06:42:52.540Z,14.93
2023-02-09T06:44:59.506Z,19.20
2023-02-09T06:47:01.294Z,17.60
2023-02-09T06:49:03.008Z,12.30
2023-02-09T06:51:12.725Z,13.57
2023-02-09T06:53:14.830Z,13.93
2023-02-09T06:55:16.805Z,15.83
2023-02-09T06:57:18.603Z,11.43
2023-02-09T06:59:20.380Z,16.67
2023-02-09T07:01:22.236Z,16.73
2023-02-09T07:03:23.916Z,15.57
2023-02-09T07:05:26.122Z,12.20
2023-02-09T07:07:27.988Z,11.47
2023-02-09T07:09:29.615Z,10.87
2023-02-09T07:11:31.301Z,13.37
2023-02-09T07:13:33.578Z,15.87
2023-02-09T07:15:35.463Z,10.70
2023-02-09T07:17:37.346Z,12.27
2023-02-09T07:19:39.028Z,12.97
2023-02-09T07:21:43.305Z,12.77
2023-02-09T07:23:46.194Z,14.53
2023-02-09T07:25:47.795Z,13.57
2023-02-09T07:27:52.156Z,12.73
2023-02-09T07:29:53.992Z,20.00
2023-02-09T07:32:02.070Z,15.77
2023-02-09T07:34:04.015Z,16.67
2023-02-09T07:36:09.660Z,15.43
2023-02-09T07:38:11.978Z,14.87
2023-02-09T07:40:13.801Z,23.47
2023-02-09T07:42:15.839Z,15.40
2023-02-09T07:44:17.831Z,13.33
2023-02-09T07:46:21.491Z,15.47
2023-02-09T07:48:25.445Z,13.53
2023-02-09T07:50:27.281Z,26.40
2023-02-09T07:52:29.056Z,24.53
2023-02-09T07:54:30.793Z,30.03
2023-02-09T07:56:32.385Z,25.20
2023-02-09T07:58:35.268Z,18.10
2023-02-09T08:00:37.166Z,21.30
2023-02-09T08:02:39.319Z,18.37
2023-02-09T08:04:40.958Z,14.43
2023-02-09T08:06:46.238Z,19.43
2023-02-09T08:08:50.138Z,20.67
2023-02-09T08:10:52.511Z,25.80
2023-02-09T08:13:02.644Z,15.80
2023-02-09T08:15:05.481Z,16.53
2023-02-09T08:17:20.239Z,17.50
2023-02-09T08:19:23.475Z,19.77
2023-02-09T08:21:26.347Z,17.27
2023-02-09T08:23:34.507Z,12.77
2023-02-09T08:25:36.369Z,21.83
2023-02-09T08:27:39.736Z,16.27
2023-02-09T08:29:41.394Z,13.83
2023-02-09T08:31:43.217Z,12.30
2023-02-09T08:33:46.828Z,9.40
2023-02-09T08:35:52.385Z,10.43
2023-02-09T08:37:54.137Z,11.25
2023-02-09T08:39:55.785Z,13.63
2023-02-09T08:41:57.469Z,14.98
2023-02-09T08:43:59.078Z,12.65
2023-02-09T08:46:05.776Z,12.95
2023-02-09T08:48:11.359Z,11.82
2023-02-09T08:50:12.994Z,12.80
2023-02-09T08:52:15.741Z,12.20
2023-02-09T08:54:17.372Z,11.20
2023-02-09T08:56:20.281Z,13.48
2023-02-09T08:58:21.978Z,11.50
2023-02-09T09:00:23.685Z,10.10
2023-02-09T09:02:25.801Z,11.48
2023-02-09T09:04:39.554Z,12.43
2023-02-09T09:06:41.479Z,11.05
2023-02-09T09:08:43.192Z,9.32
2023-02-09T09:10:46.005Z,10.40
2023-02-09T09:13:02.575Z,10.38
2023-02-09T09:15:07.363Z,10.48
2023-02-09T09:17:09.039Z,14.88
2023-02-09T09:19:10.739Z,10.65
2023-02-09T09:21:24.676Z,10.77
2023-02-09T09:23:29.503Z,12.25
2023-02-09T09:25:33.321Z,12.55
2023-02-09T09:27:36.169Z,12.93
2023-02-09T09:29:44.940Z,12.18
2023-02-09T09:31:46.858Z,12.02
2023-02-09T09:33:48.812Z,10.43
2023-02-09T09:35:50.431Z,11.27
2023-02-09T09:37:53.277Z,10.68
2023-02-09T09:39:55.101Z,12.35
2023-02-09T09:41:59.890Z,11.02
2023-02-09T09:44:03.549Z,10.18
2023-02-09T09:46:07.535Z,11.13
2023-02-09T09:48:26.924Z,16.85
2023-02-09T09:50:41.741Z,11.00
2023-02-09T09:52:47.688Z,11.10
2023-02-09T09:54:54.237Z,9.55
2023-02-09T09:56:59.325Z,13.40
2023-02-09T09:59:01.769Z,12.82
2023-02-09T10:01:03.860Z,12.13
2023-02-09T10:03:17.213Z,13.20
2023-02-09T10:05:25.060Z,20.27
2023-02-09T10:07:31.660Z,11.45
2023-02-09T10:09:36.023Z,13.05
2023-02-09T10:11:51.231Z,11.77
2023-02-09T10:13:54.859Z,13.70
2023-02-09T10:15:57.417Z,15.70
2023-02-09T10:17:59.734Z,23.25
2023-02-09T10:20:05.792Z,11.82
2023-02-09T10:22:13.097Z,13.27
2023-02-09T10:24:22.078Z,14.80
2023-02-09T10:26:25.908Z,12.98
2023-02-09T10:28:33.664Z,12.77
2023-02-09T10:30:35.499Z,13.48
2023-02-09T10:32:39.997Z,12.85
2023-02-09T10:34:48.637Z,12.80
2023-02-09T10:37:06.761Z,11.57
2023-02-09T10:39:11.348Z,11.05
2023-02-09T10:41:14.105Z,12.50
2023-02-09T10:43:20.781Z,13.57
2023-02-09T10:45:27.783Z,12.32
2023-02-09T10:47:31.105Z,13.63
2023-02-09T10:49:38.486Z,13.70
2023-02-09T10:51:40.071Z,13.88
2023-02-09T10:53:53.693Z,12.35
2023-02-09T10:56:05.517Z,13.55
2023-02-09T10:58:18.209Z,13.32
2023-02-09T11:00:24.714Z,12.82
2023-02-09T11:02:41.513Z,12.73
2023-02-09T11:04:47.750Z,12.20
2023-02-09T11:06:58.879Z,13.55
2023-02-09T11:09:08.022Z,13.45
2023-02-09T11:11:21.663Z,13.82
2023-02-09T11:13:26.065Z,13.18
2023-02-09T11:15:35.147Z,14.13
2023-02-09T11:17:45.749Z,12.55
2023-02-09T11:20:05.264Z,13.55
2023-02-09T11:22:34.382Z,12.25
2023-02-09T11:25:01.958Z,11.93
2023-02-09T11:27:11.451Z,12.48
2023-02-09T11:29:25.301Z,14.20
2023-02-09T11:31:56.823Z,13.68
2023-02-09T11:33:58.505Z,12.10
2023-02-09T11:36:00.088Z,13.93
2023-02-09T11:38:26.873Z,14.02
2023-02-09T11:40:42.006Z,13.95
2023-02-09T11:42:49.034Z,13.98
2023-02-09T11:45:10.926Z,13.60
2023-02-09T11:47:22.922Z,14.55
2023-02-09T11:49:27.324Z,13.40
2023-02-09T11:51:31.585Z,12.95
2023-02-09T11:53:47.835Z,13.27
2023-02-09T11:56:01.910Z,14.15
2023-02-09T11:58:38.673Z,13.55
2023-02-09T12:00:57.749Z,15.80
2023-02-09T12:03:14.405Z,12.65
2023-02-09T12:05:18.293Z,13.27
2023-02-09T12:07:49.342Z,13.65
2023-02-09T12:10:18.895Z,12.48
2023-02-09T12:12:39.854Z,13.88
2023-02-09T12:14:50.626Z,12.38
2023-02-09T12:17:27.084Z,12.18
2023-02-09T12:19:34.669Z,13.00
2023-02-09T12:21:38.438Z,12.23
2023-02-09T12:23:42.239Z,12.18
2023-02-09T12:25:53.117Z,12.10
2023-02-09T12:28:24.426Z,13.00
2023-02-09T12:30:41.128Z,12.27
2023-02-09T12:32:44.548Z,15.90
2023-02-09T12:34:49.620Z,13.05
2023-02-09T12:37:13.257Z,13.45
2023-02-09T12:39:24.909Z,11.68
2023-02-09T12:41:29.328Z,10.85
2023-02-09T12:43:32.698Z,11.65
2023-02-09T12:45:44.726Z,12.63
2023-02-09T12:47:56.650Z,11.65
2023-02-09T12:50:05.510Z,11.07
2023-02-09T12:52:15.006Z,12.32
2023-02-09T12:54:35.313Z,12.13
2023-02-09T12:56:39.026Z,10.40
2023-02-09T12:58:43.879Z,15.10
2023-02-09T13:00:54.154Z,12.27
2023-02-09T13:02:56.856Z,12.05
2023-02-09T13:05:02.166Z,13.65
2023-02-09T13:07:06.774Z,10.23
2023-02-09T13:09:11.222Z,13.63
2023-02-09T13:11:23.777Z,11.93
2023-02-09T13:13:35.442Z,11.57
2023-02-09T13:16:00.224Z,11.45
2023-02-09T13:18:08.780Z,10.90
2023-02-09T13:20:28.699Z,12.88
2023-02-09T13:22:57.721Z,11.73
2023-02-09T13:25:01.235Z,12.18
2023-02-09T13:27:02.972Z,15.02
2023-02-09T13:29:22.220Z,12.35
2023-02-09T13:31:31.496Z,9.90
2023-02-09T13:33:40.669Z,12.02
2023-02-09T13:36:03.409Z,11.85
2023-02-09T13:38:19.104Z,11.20
2023-02-09T13:40:20.691Z,10.05
2023-02-09T13:42:25.365Z,11.73
2023-02-09T13:44:29.314Z,12.23
2023-02-09T13:46:35.148Z,10.10
2023-02-09T13:48:39.339Z,12.63
2023-02-09T13:50:47.496Z,10.77
2023-02-09T13:52:52.236Z,12.73
2023-02-09T13:54:54.495Z,11.25
2023-02-09T13:57:01.565Z,13.65
2023-02-09T13:59:03.921Z,14.63
2023-02-09T14:01:08.302Z,10.38
2023-02-09T14:03:57.500Z,10.77
2023-02-09T14:06:09.187Z,12.40
2023-02-09T14:08:13.334Z,10.82
2023-02-09T14:10:20.054Z,11.25
2023-02-09T14:12:51.824Z,10.73
2023-02-09T14:15:20.573Z,9.65
2023-02-09T14:17:32.659Z,9.93
2023-02-09T14:19:34.583Z,10.38
2023-02-09T14:21:40.218Z,9.75
2023-02-09T14:23:50.140Z,10.82
2023-02-09T14:26:15.496Z,11.18
2023-02-09T14:28:19.994Z,12.15
2023-02-09T14:30:21.627Z,10.18
2023-02-09T14:32:38.102Z,9.38
2023-02-09T14:34:40.559Z,11.15
2023-02-09T14:36:51.692Z,12.32
2023-02-09T14:39:17.039Z,10.68
2023-02-09T14:41:32.956Z,12.27
2023-02-09T14:43:34.605Z,9.32
2023-02-09T14:45:44.727Z,12.25
2023-02-09T14:47:46.646Z,9.30
2023-02-09T14:49:48.274Z,13.82
2023-02-09T14:51:52.739Z,12.10
2023-02-09T14:53:54.828Z,9.95
2023-02-09T14:55:57.739Z,18.00
2023-02-09T14:57:59.355Z,12.23
2023-02-09T15:00:00.931Z,10.32
2023-02-09T15:02:02.675Z,10.65
2023-02-09T15:04:04.289Z,10.40
2023-02-09T15:06:06.106Z,10.55
2023-02-09T15:08:12.438Z,9.50
2023-02-09T15:10:26.362Z,10.30
2023-02-09T15:12:28.488Z,10.55
2023-02-09T15:14:31.586Z,11.35
2023-02-09T15:16:33.217Z,10.52
2023-02-09T15:18:36.188Z,10.30
2023-02-09T15:20:37.777Z,10.40
2023-02-09T15:22:39.391Z,11.95
2023-02-09T15:24:45.472Z,9.23
2023-02-09T15:26:47.629Z,9.50
2023-02-09T15:28:49.374Z,12.48
2023-02-09T15:30:51.030Z,9.48
2023-02-09T15:32:53.219Z,13.07
2023-02-09T15:34:54.962Z,9.52
2023-02-09T15:36:56.552Z,9.77
2023-02-09T15:38:58.724Z,11.02
2023-02-09T15:41:18.864Z,10.85
2023-02-09T15:43:41.083Z,9.95
2023-02-09T15:46:01.298Z,9.30
2023-02-09T15:48:03.585Z,9.75
2023-02-09T15:50:05.345Z,13.35
2023-02-09T15:52:07.492Z,16.90
2023-02-09T15:54:15.249Z,15.45
2023-02-09T15:56:16.975Z,11.35
2023-02-09T15:58:35.671Z,11.70
2023-02-09T16:00:37.418Z,10.20
2023-02-09T16:02:39.001Z,17.20
2023-02-09T16:04:40.764Z,11.40
2023-02-09T16:06:51.473Z,10.95
2023-02-09T16:08:54.011Z,11.30
2023-02-09T16:10:56.177Z,12.13
2023-02-09T16:12:57.919Z,9.73
2023-02-09T16:14:59.559Z,11.00
2023-02-09T16:17:01.375Z,12.52
2023-02-09T16:19:03.193Z,13.35
2023-02-09T16:21:06.563Z,12.55
2023-02-09T16:23:20.211Z,10.00
2023-02-09T16:25:26.227Z,10.25
2023-02-09T16:27:28.632Z,10.80
2023-02-09T16:29:30.623Z,12.00
2023-02-09T16:31:32.270Z,13.18
2023-02-09T16:33:35.528Z,12.32
2023-02-09T16:35:37.427Z,14.65
2023-02-09T16:37:39.825Z,11.77
2023-02-09T16:39:41.624Z,13.88
2023-02-09T16:41:53.615Z,11.65
2023-02-09T16:43:55.337Z,13.82
2023-02-09T16:46:03.377Z,10.75
2023-02-09T16:48:06.302Z,11.05
2023-02-09T16:50:26.571Z,11.18
2023-02-09T16:52:30.312Z,12.75
2023-02-09T16:54:39.844Z,10.85
2023-02-09T16:56:53.647Z,12.05
2023-02-09T16:58:55.560Z,15.18
2023-02-09T17:00:57.939Z,12.23
2023-02-09T17:03:04.767Z,16.95
2023-02-09T17:05:21.483Z,12.30
2023-02-09T17:07:30.081Z,12.30
2023-02-09T17:09:31.825Z,12.75
2023-02-09T17:11:33.496Z,13.95
2023-02-09T17:13:35.133Z,25.23
2023-02-09T17:15:45.444Z,18.67
2023-02-09T17:17:51.768Z,15.48
2023-02-09T17:19:53.939Z,18.55
2023-02-09T17:21:58.768Z,17.70
2023-02-09T17:24:00.666Z,14.95
2023-02-09T17:26:03.179Z,17.52
2023-02-09T17:28:05.726Z,13.57
2023-02-09T17:30:09.742Z,12.40
2023-02-09T17:32:14.798Z,16.45
2023-02-09T17:34:17.033Z,18.23
2023-02-09T17:36:26.385Z,14.25
2023-02-09T17:38:32.329Z,11.90
2023-02-09T17:40:35.292Z,15.52
2023-02-09T17:42:37.155Z,15.93
2023-02-09T17:44:46.153Z,18.70
2023-02-09T17:46:49.533Z,13.35
2023-02-09T17:48:51.238Z,13.20
2023-02-09T17:50:56.922Z,11.93
2023-02-09T17:53:00.439Z,14.80
2023-02-09T17:55:02.101Z,10.82
2023-02-09T17:57:03.795Z,9.75
2023-02-09T17:59:08.303Z,11.55
2023-02-09T18:01:29.149Z,10.70
2023-02-09T18:03:30.860Z,11.95
2023-02-09T18:05:36.009Z,9.90
2023-02-09T18:07:37.610Z,11.55
2023-02-09T18:09:39.379Z,13.55
2023-02-09T18:11:47.361Z,12.23
2023-02-09T18:13:49.049Z,14.15
2023-02-09T18:15:52.264Z,18.83
2023-02-09T18:17:54.252Z,23.15
2023-02-09T18:19:56.908Z,15.25
2023-02-09T18:21:59.906Z,28.75
2023-02-09T18:24:01.588Z,14.90
2023-02-09T18:26:03.195Z,24.23
2023-02-09T18:28:06.642Z,20.20
2023-02-09T18:30:08.771Z,22.50
2023-02-09T18:32:13.223Z,23.23
2023-02-09T18:34:15.620Z,17.90
2023-02-09T18:36:17.290Z,15.68
2023-02-09T18:38:18.857Z,18.42
2023-02-09T18:40:20.447Z,17.40
2023-02-09T18:42:22.057Z,14.85
2023-02-09T18:44:29.061Z,16.42
2023-02-09T18:46:31.052Z,19.90
2023-02-09T18:48:32.797Z,14.15
2023-02-09T18:50:34.434Z,13.67
2023-02-09T18:53:00.135Z,19.02
2023-02-09T18:55:02.234Z,24.20
2023-02-09T18:57:03.871Z,15.65
2023-02-09T18:59:05.938Z,19.35
2023-02-09T19:01:13.374Z,14.18
2023-02-09T19:03:17.698Z,13.55
2023-02-09T19:05:19.502Z,12.50
2023-02-09T19:07:21.226Z,12.65
2023-02-09T19:09:22.893Z,16.53
2023-02-09T19:11:24.533Z,16.38
2023-02-09T19:13:26.141Z,17.95
2023-02-09T19:15:27.833Z,15.90
2023-02-09T19:17:29.922Z,16.80
2023-02-09T19:19:31.562Z,16.77
2023-02-09T19:21:33.244Z,12.10
2023-02-09T19:23:34.865Z,13.82
2023-02-09T19:25:36.516Z,15.52
2023-02-09T19:27:38.106Z,17.05
2023-02-09T19:29:43.596Z,14.73
2023-02-09T19:31:46.534Z,15.02
2023-02-09T19:33:48.174Z,16.88
2023-02-09T19:35:57.514Z,17.95
2023-02-09T19:37:59.339Z,16.42
2023-02-09T19:40:04.923Z,17.90
2023-02-09T19:42:07.307Z,20.70
2023-02-09T19:44:09.009Z,14.13
2023-02-09T19:46:10.678Z,25.67
2023-02-09T19:48:12.485Z,16.85
2023-02-09T19:50:15.968Z,18.85
2023-02-09T19:52:17.546Z,19.83
2023-02-09T19:54:19.254Z,22.53
2023-02-09T19:56:23.334Z,27.80
2023-02-09T19:58:25.128Z,28.42
2023-02-09T20:00:26.759Z,38.47
2023-02-09T20:02:28.493Z,31.38
2023-02-09T20:04:30.248Z,27.85
2023-02-09T20:06:33.872Z,30.30
2023-02-09T20:08:37.056Z,29.30
2023-02-09T20:10:39.620Z,38.90
2023-02-09T20:12:41.788Z,28.27
2023-02-09T20:14:43.426Z,28.63
2023-02-09T20:16:45.018Z,21.63
2023-02-09T20:18:49.524Z,14.57
2023-02-09T20:20:51.155Z,20.93
2023-02-09T20:22:52.755Z,12.77
2023-02-09T20:24:54.406Z,13.97
2023-02-09T20:26:56.040Z,14.23
2023-02-09T20:28:58.958Z,14.83
2023-02-09T20:31:00.668Z,18.43
2023-02-09T20:33:02.598Z,14.33
2023-02-09T20:35:05.267Z,17.33
2023-02-09T20:37:06.892Z,19.37
2023-02-09T20:39:13.406Z,15.83
2023-02-09T20:41:17.685Z,19.87
2023-02-09T20:43:38.024Z,15.87
2023-02-09T20:45:58.223Z,17.17
2023-02-09T20:47:59.935Z,23.80
2023-02-09T20:50:01.616Z,20.90
2023-02-09T20:52:03.265Z,19.83
2023-02-09T20:54:05.526Z,26.83
2023-02-09T20:56:07.340Z,25.07
2023-02-09T20:58:12.773Z,20.53
2023-02-09T21:00:14.904Z,14.63
2023-02-09T21:02:16.550Z,19.60
2023-02-09T21:04:18.301Z,19.70
2023-02-09T21:06:20.877Z,16.27
2023-02-09T21:08:23.829Z,16.73
2023-02-09T21:10:25.882Z,16.73
2023-02-09T21:12:27.566Z,18.17
2023-02-09T21:14:41.220Z,14.50
2023-02-09T21:16:43.549Z,17.00
2023-02-09T21:18:45.847Z,17.03
2023-02-09T21:20:47.836Z,14.87
2023-02-09T21:22:52.509Z,21.67
2023-02-09T21:24:54.245Z,15.90
2023-02-09T21:26:55.977Z,14.37
2023-02-09T21:28:58.357Z,14.00
2023-02-09T21:31:00.004Z,15.83
2023-02-09T21:33:01.853Z,13.83
2023-02-09T21:35:04.386Z,13.73
2023-02-09T21:37:10.204Z,15.87
2023-02-09T21:39:12.065Z,13.53
2023-02-09T21:41:36.806Z,14.03
2023-02-09T21:43:38.660Z,15.73
2023-02-09T21:45:40.486Z,15.07
2023-02-09T21:47:42.172Z,13.77
2023-02-09T21:49:43.895Z,22.83
2023-02-09T21:51:45.548Z,15.73
2023-02-09T21:53:47.482Z,15.33
2023-02-09T21:55:49.212Z,16.47
2023-02-09T21:57:50.906Z,14.23
2023-02-09T21:59:53.212Z,15.43
2023-02-09T22:01:55.009Z,12.87
2023-02-09T22:03:58.395Z,12.93
2023-02-09T22:06:02.229Z,15.97
2023-02-09T22:08:03.870Z,15.87
2023-02-09T22:10:06.032Z,14.57
2023-02-09T22:12:08.557Z,13.43
2023-02-09T22:14:10.254Z,14.83
2023-02-09T22:16:18.051Z,15.23
2023-02-09T22:18:19.707Z,12.93
2023-02-09T22:20:21.377Z,13.70
2023-02-09T22:22:23.012Z,12.67
2023-02-09T22:24:25.192Z,14.30
2023-02-09T22:26:26.888Z,16.10
2023-02-09T22:28:29.185Z,13.97
2023-02-09T22:30:30.966Z,17.20
2023-02-09T22:32:32.611Z,13.57
2023-02-09T22:34:34.262Z,12.53
2023-02-09T22:36:36.126Z,11.20
2023-02-09T22:38:38.014Z,11.03
2023-02-09T22:40:39.748Z,11.80
2023-02-09T22:42:41.381Z,12.23
2023-02-09T22:44:43.083Z,16.53
2023-02-09T22:46:46.205Z,10.83
2023-02-09T22:48:52.508Z,11.80
2023-02-09T22:50:54.221Z,16.57
2023-02-09T22:52:55.878Z,16.53
2023-02-09T22:54:59.272Z,14.83
2023-02-09T22:57:01.010Z,12.87
2023-02-09T22:59:02.685Z,11.87
2023-02-09T23:01:05.114Z,12.67
2023-02-09T23:03:06.758Z,14.90
2023-02-09T23:05:08.674Z,13.53
2023-02-09T23:07:10.557Z,23.43
2023-02-09T23:09:13.781Z,15.67
2023-02-09T23:11:17.252Z,12.90
2023-02-09T23:13:18.881Z,14.80
2023-02-09T23:15:20.719Z,18.97
2023-02-09T23:17:22.325Z,15.80
2023-02-09T23:19:24.043Z,16.67
2023-02-09T23:21:28.553Z,14.93
2023-02-09T23:23:30.533Z,18.13
2023-02-09T23:25:32.616Z,14.40
2023-02-09T23:27:34.235Z,15.40
2023-02-09T23:29:35.973Z,12.77
2023-02-09T23:31:37.651Z,12.63
2023-02-09T23:33:39.462Z,19.67
2023-02-09T23:35:41.828Z,16.53
2023-02-09T23:37:43.584Z,13.70
2023-02-09T23:39:45.230Z,13.27
2023-02-09T23:41:46.949Z,16.80
2023-02-09T23:43:48.781Z,21.67
2023-02-09T23:45:50.831Z,14.93
2023-02-09T23:47:52.710Z,13.97
2023-02-09T23:49:54.392Z,16.23
2023-02-09T23:51:56.109Z,17.97
2023-02-09T23:54:00.086Z,16.17
2023-02-09T23:56:04.718Z,19.70
2023-02-09T23:58:06.333Z,19.77
